createdAt,value
2022-09-18T00:01:39.184Z,93.64
2022-09-18T00:07:41.911Z,93.41
2022-09-18T00:13:43.894Z,93.84
2022-09-18T00:19:47.974Z,93.80
2022-09-18T00:25:49.838Z,94.29
2022-09-18T00:31:55.128Z,94.29
2022-09-18T00:37:57.792Z,94.69
2022-09-18T00:44:24.725Z,94.10
2022-09-18T00:50:27.861Z,94.34
2022-09-18T00:56:34.596Z,94.04
2022-09-18T01:02:36.486Z,93.49
2022-09-18T01:08:50.209Z,93.13
2022-09-18T01:15:02.346Z,93.28
2022-09-18T01:21:16.472Z,93.56
2022-09-18T01:27:39.563Z,94.23
2022-09-18T01:34:09.497Z,93.84
2022-09-18T01:40:27.252Z,94.18
2022-09-18T01:46:39.536Z,94.45
2022-09-18T01:53:07.937Z,93.93
2022-09-18T01:59:17.041Z,93.74
2022-09-18T02:05:39.917Z,93.44
2022-09-18T02:11:51.124Z,93.19
2022-09-18T02:18:05.692Z,92.38
2022-09-18T02:24:11.916Z,92.96
2022-09-18T02:30:14.178Z,92.61
2022-09-18T02:36:37.847Z,93.05
2022-09-18T02:43:04.732Z,93.90
2022-09-18T02:49:20.291Z,94.22
2022-09-18T02:55:46.612Z,94.34
2022-09-18T03:01:54.753Z,96.93
2022-09-18T03:07:56.802Z,97.36
2022-09-18T03:13:58.776Z,97.35
2022-09-18T03:20:00.636Z,96.90
2022-09-18T03:26:02.513Z,97.13
2022-09-18T03:32:04.823Z,97.63
2022-09-18T03:38:06.919Z,97.13
2022-09-18T03:44:08.824Z,97.62
2022-09-18T03:50:11.250Z,96.87
2022-09-18T03:56:14.962Z,96.49
2022-09-18T04:02:19.840Z,96.35
2022-09-18T04:08:21.985Z,97.22
2022-09-18T04:14:28.005Z,96.89
2022-09-18T04:20:31.912Z,97.23
2022-09-18T04:26:37.524Z,96.87
2022-09-18T04:32:39.397Z,96.16
2022-09-18T04:38:41.277Z,97.24
2022-09-18T04:44:43.166Z,96.18
2022-09-18T04:50:46.858Z,96.38
2022-09-18T04:56:48.893Z,95.83
2022-09-18T05:02:50.790Z,95.81
2022-09-18T05:08:52.690Z,97.79
2022-09-18T05:14:54.683Z,98.97
2022-09-18T05:20:56.662Z,100.00
2022-09-18T05:26:58.567Z,100.00
2022-09-18T05:33:07.185Z,99.28
2022-09-18T05:39:09.088Z,98.78
2022-09-18T05:45:11.266Z,98.24
2022-09-18T05:51:13.152Z,97.82
2022-09-18T05:57:15.038Z,94.96
2022-09-18T06:03:17.447Z,94.56
2022-09-18T06:09:19.319Z,94.70
2022-09-18T06:15:21.265Z,93.79
2022-09-18T06:21:23.209Z,94.14
2022-09-18T06:27:25.191Z,94.25
2022-09-18T06:33:29.410Z,93.50
2022-09-18T06:39:31.338Z,93.08
2022-09-18T06:45:33.246Z,92.82
2022-09-18T06:51:35.206Z,93.26
2022-09-18T06:57:37.104Z,90.67
2022-09-18T07:03:39.010Z,88.26
2022-09-18T07:09:40.934Z,87.82
2022-09-18T07:15:45.750Z,86.71
2022-09-18T07:21:47.710Z,85.42
2022-09-18T07:27:50.818Z,86.05
2022-09-18T07:33:54.067Z,86.71
2022-09-18T07:39:55.994Z,86.37
2022-09-18T07:45:58.052Z,86.50
2022-09-18T07:52:09.326Z,86.33
2022-09-18T07:58:11.389Z,86.46
2022-09-18T08:04:13.499Z,86.92
2022-09-18T08:10:21.517Z,84.48
2022-09-18T08:16:24.909Z,83.80
2022-09-18T08:22:37.614Z,82.91
2022-09-18T08:28:39.576Z,82.00
2022-09-18T08:34:44.496Z,82.63
2022-09-18T08:41:14.966Z,81.05
2022-09-18T08:47:33.095Z,80.43
2022-09-18T08:53:47.414Z,81.45
2022-09-18T09:00:01.661Z,80.54
2022-09-18T09:06:57.064Z,81.55
2022-09-18T09:13:52.198Z,80.34
2022-09-18T09:20:14.659Z,83.04
2022-09-18T09:34:29.789Z,83.81
2022-09-18T09:40:41.716Z,83.34
2022-09-18T09:47:01.673Z,84.14
2022-09-18T09:53:09.367Z,86.92
2022-09-18T10:00:07.885Z,88.76
2022-09-18T10:13:01.652Z,92.90
2022-09-18T10:19:04.737Z,93.92
2022-09-18T10:25:21.701Z,95.12
2022-09-18T10:31:23.695Z,97.57
2022-09-18T10:37:28.589Z,95.95
2022-09-18T10:43:33.712Z,96.00
2022-09-18T10:49:36.777Z,94.61
2022-09-18T10:55:55.153Z,94.62
2022-09-18T11:02:05.251Z,92.98
2022-09-18T11:08:17.828Z,91.95
2022-09-18T11:14:30.663Z,91.81
2022-09-18T11:27:23.230Z,91.36
2022-09-18T11:33:29.631Z,92.41
2022-09-18T11:39:43.045Z,90.29
2022-09-18T11:45:57.193Z,88.39
2022-09-18T11:52:43.259Z,85.28
2022-09-18T11:59:09.923Z,85.23
2022-09-18T12:06:18.871Z,85.08
2022-09-18T12:12:38.699Z,87.21
2022-09-18T12:19:05.113Z,88.20
2022-09-18T12:25:17.848Z,89.81
2022-09-18T12:31:56.870Z,91.71
2022-09-18T12:38:16.752Z,93.46
2022-09-18T12:44:44.076Z,94.53
2022-09-18T12:51:03.948Z,96.82
2022-09-18T12:57:27.127Z,99.92
2022-09-18T13:03:36.200Z,100.00
2022-09-18T13:09:56.080Z,100.00
2022-09-18T13:16:17.343Z,97.62
2022-09-18T13:22:21.079Z,99.36
2022-09-18T13:28:25.842Z,96.18
2022-09-18T13:34:28.574Z,97.71
2022-09-18T13:40:49.972Z,97.30
2022-09-18T13:46:57.613Z,96.20
2022-09-18T13:53:01.367Z,96.83
2022-09-18T13:59:04.368Z,96.32
2022-09-18T14:05:44.156Z,94.65
2022-09-18T14:11:51.621Z,94.34
2022-09-18T14:18:16.690Z,92.50
2022-09-18T14:24:40.287Z,88.87
2022-09-18T14:30:42.390Z,90.57
2022-09-18T14:36:59.798Z,90.34
2022-09-18T14:43:02.509Z,86.59
2022-09-18T14:49:41.532Z,88.06
2022-09-18T14:55:54.511Z,87.25
2022-09-18T15:02:35.548Z,83.24
2022-09-18T15:08:41.283Z,83.80
2022-09-18T15:14:47.498Z,84.77
2022-09-18T15:27:11.012Z,85.31
2022-09-18T15:40:54.708Z,86.42
2022-09-18T15:46:56.780Z,88.46
2022-09-18T15:52:58.776Z,82.58
2022-09-18T15:59:05.295Z,83.42
2022-09-18T16:05:14.968Z,84.92
2022-09-18T16:11:39.116Z,85.55
2022-09-18T16:17:46.662Z,85.78
2022-09-18T16:23:56.165Z,86.69
2022-09-18T16:29:58.138Z,87.20
2022-09-18T16:36:14.530Z,88.49
2022-09-18T16:42:18.959Z,89.37
2022-09-18T16:48:21.708Z,90.15
2022-09-18T16:54:26.521Z,91.07
2022-09-18T17:00:29.165Z,93.14
2022-09-18T17:06:34.195Z,95.37
2022-09-18T17:12:36.968Z,97.01
2022-09-18T17:18:41.006Z,95.62
2022-09-18T17:24:42.873Z,95.26
2022-09-18T17:30:45.235Z,97.38
2022-09-18T17:36:47.273Z,97.70
2022-09-18T17:42:49.250Z,99.51
2022-09-18T17:48:56.615Z,98.39
2022-09-18T17:54:58.517Z,99.88
2022-09-18T18:01:00.770Z,96.88
2022-09-18T18:07:04.898Z,97.19
2022-09-18T18:13:06.882Z,98.52
2022-09-18T18:19:12.730Z,98.95
2022-09-18T18:25:14.722Z,98.82
2022-09-18T18:31:19.963Z,98.72
2022-09-18T18:37:22.439Z,98.30
2022-09-18T18:43:24.431Z,98.34
2022-09-18T18:49:27.827Z,98.22
2022-09-18T18:55:31.530Z,99.07
2022-09-18T19:01:33.714Z,100.00
2022-09-18T19:07:35.695Z,100.00
2022-09-18T19:13:46.619Z,100.00
2022-09-18T19:19:49.823Z,100.00
2022-09-18T19:25:56.944Z,100.00
2022-09-18T19:31:59.384Z,99.17
2022-09-18T19:38:01.822Z,99.91
2022-09-18T19:44:34.927Z,98.20
2022-09-18T19:50:40.113Z,98.14
2022-09-18T19:56:47.383Z,98.25
2022-09-18T20:02:56.549Z,98.18
2022-09-18T20:08:59.297Z,98.82
2022-09-18T20:15:02.641Z,98.12
2022-09-18T20:21:11.025Z,98.23
2022-09-18T20:27:15.902Z,99.17
2022-09-18T20:33:17.881Z,98.63
2022-09-18T20:39:19.771Z,98.44
2022-09-18T20:45:21.744Z,98.57
2022-09-18T20:51:34.744Z,99.11
2022-09-18T20:57:37.410Z,98.71
2022-09-18T21:03:43.264Z,99.17
2022-09-18T21:09:45.165Z,97.90
2022-09-18T21:15:48.385Z,98.63
2022-09-18T21:21:50.589Z,100.00
2022-09-18T21:27:55.633Z,100.00
2022-09-18T21:34:00.161Z,100.00
2022-09-18T21:40:13.636Z,100.00
2022-09-18T21:46:20.173Z,100.00
2022-09-18T21:58:40.815Z,100.00
2022-09-18T22:04:45.670Z,100.00
2022-09-18T22:10:47.575Z,100.00
2022-09-18T22:16:50.605Z,100.00
2022-09-18T22:22:52.488Z,100.00
2022-09-18T22:28:56.938Z,100.00
2022-09-18T22:34:59.684Z,100.00
2022-09-18T22:41:04.236Z,100.00
2022-09-18T22:47:06.226Z,100.00
2022-09-18T22:53:08.108Z,100.00
2022-09-18T22:59:13.615Z,100.00
2022-09-18T23:05:15.861Z,100.00
2022-09-18T23:11:25.315Z,100.00
2022-09-18T23:17:27.220Z,100.00
2022-09-18T23:23:31.654Z,100.00
2022-09-18T23:29:33.659Z,100.00
2022-09-18T23:35:36.492Z,100.00
2022-09-18T23:41:38.736Z,100.00
2022-09-18T23:47:40.680Z,100.00
2022-09-18T23:53:42.627Z,100.00
2022-09-18T23:59:44.605Z,100.00
